sensor_id;sensor_type;location;lat;lon;timestamp;pressure;altitude;pressure_sealevel;temperature;humidity
84308;BME280;74486;52.070;5.128;2024-03-02T00:01:03;99826.31;;;8.03;84.15
84308;BME280;74486;52.070;5.128;2024-03-02T00:03:30;99840.84;;;7.98;85.62
84308;BME280;74486;52.070;5.128;2024-03-02T00:05:55;99850.47;;;8.00;83.73
84308;BME280;74486;52.070;5.128;2024-03-02T00:08:24;99864.66;;;8.07;83.69
84308;BME280;74486;52.070;5.128;2024-03-02T00:10:50;99925.41;;;8.07;84.27
84308;BME280;74486;52.070;5.128;2024-03-02T00:13:15;99936.09;;;7.94;85.96
84308;BME280;74486;52.070;5.128;2024-03-02T00:15:42;99946.00;;;7.63;88.75
84308;BME280;74486;52.070;5.128;2024-03-02T00:18:11;99938.34;;;7.47;90.87
84308;BME280;74486;52.070;5.128;2024-03-02T00:20:39;99942.50;;;7.24;93.96
84308;BME280;74486;52.070;5.128;2024-03-02T00:23:05;99930.13;;;7.18;95.43
84308;BME280;74486;52.070;5.128;2024-03-02T00:25:38;99925.41;;;7.10;96.48
84308;BME280;74486;52.070;5.128;2024-03-02T00:28:04;99922.44;;;7.02;97.68
84308;BME280;74486;52.070;5.128;2024-03-02T00:30:45;99925.59;;;6.95;99.61
84308;BME280;74486;52.070;5.128;2024-03-02T00:33:18;99941.84;;;6.91;100.00
84308;BME280;74486;52.070;5.128;2024-03-02T00:35:47;99932.16;;;6.87;100.00
84308;BME280;74486;52.070;5.128;2024-03-02T00:38:14;99937.94;;;6.81;100.00
84308;BME280;74486;52.070;5.128;2024-03-02T00:40:40;99936.06;;;6.79;100.00
84308;BME280;74486;52.070;5.128;2024-03-02T00:43:05;99941.81;;;6.72;100.00
84308;BME280;74486;52.070;5.128;2024-03-02T00:45:31;99927.13;;;6.72;100.00
84308;BME280;74486;52.070;5.128;2024-03-02T00:47:58;99925.25;;;6.70;100.00
84308;BME280;74486;52.070;5.128;2024-03-02T00:50:23;99926.53;;;6.60;100.00
84308;BME280;74486;52.070;5.128;2024-03-02T00:52:53;99933.19;;;6.55;100.00
84308;BME280;74486;52.070;5.128;2024-03-02T00:55:18;99934.91;;;6.54;100.00
84308;BME280;74486;52.070;5.128;2024-03-02T00:57:44;99941.06;;;6.57;100.00
84308;BME280;74486;52.070;5.128;2024-03-02T01:00:11;99935.88;;;6.57;100.00
84308;BME280;74486;52.070;5.128;2024-03-02T01:02:37;99936.59;;;6.54;100.00
84308;BME280;74486;52.070;5.128;2024-03-02T01:05:03;99924.53;;;6.54;100.00
84308;BME280;74486;52.070;5.128;2024-03-02T01:07:28;99921.88;;;6.53;100.00
84308;BME280;74486;52.070;5.128;2024-03-02T01:09:55;99936.38;;;6.49;100.00
84308;BME280;74486;52.070;5.128;2024-03-02T01:12:21;99946.72;;;6.48;100.00
84308;BME280;74486;52.070;5.128;2024-03-02T01:14:46;99943.44;;;6.52;100.00
84308;BME280;74486;52.070;5.128;2024-03-02T01:17:12;99940.78;;;6.50;100.00
84308;BME280;74486;52.070;5.128;2024-03-02T01:19:37;99943.38;;;6.50;100.00
84308;BME280;74486;52.070;5.128;2024-03-02T01:22:03;99947.75;;;6.51;100.00
84308;BME280;74486;52.070;5.128;2024-03-02T01:24:29;99959.03;;;6.52;100.00
84308;BME280;74486;52.070;5.128;2024-03-02T01:26:55;99944.19;;;6.49;100.00
84308;BME280;74486;52.070;5.128;2024-03-02T01:29:21;99947.66;;;6.50;100.00
84308;BME280;74486;52.070;5.128;2024-03-02T01:31:46;99958.06;;;6.50;100.00
84308;BME280;74486;52.070;5.128;2024-03-02T01:34:12;99967.50;;;6.48;100.00
84308;BME280;74486;52.070;5.128;2024-03-02T01:36:37;99959.69;;;6.48;100.00
84308;BME280;74486;52.070;5.128;2024-03-02T01:39:03;99957.16;;;6.49;100.00
84308;BME280;74486;52.070;5.128;2024-03-02T01:41:28;99963.03;;;6.45;100.00
84308;BME280;74486;52.070;5.128;2024-03-02T01:43:55;99981.09;;;6.44;100.00
84308;BME280;74486;52.070;5.128;2024-03-02T01:46:21;99978.38;;;6.41;100.00
84308;BME280;74486;52.070;5.128;2024-03-02T01:48:46;99975.69;;;6.39;100.00
84308;BME280;74486;52.070;5.128;2024-03-02T01:51:12;99991.88;;;6.34;100.00
84308;BME280;74486;52.070;5.128;2024-03-02T01:53:37;99981.56;;;6.35;100.00
84308;BME280;74486;52.070;5.128;2024-03-02T01:56:03;99990.22;;;6.36;100.00
84308;BME280;74486;52.070;5.128;2024-03-02T01:58:29;99978.94;;;6.35;100.00
84308;BME280;74486;52.070;5.128;2024-03-02T02:00:56;99978.94;;;6.35;100.00
84308;BME280;74486;52.070;5.128;2024-03-02T02:03:21;99972.50;;;6.27;100.00
84308;BME280;74486;52.070;5.128;2024-03-02T02:05:47;99981.09;;;6.26;100.00
84308;BME280;74486;52.070;5.128;2024-03-02T02:08:12;99995.06;;;6.28;100.00
84308;BME280;74486;52.070;5.128;2024-03-02T02:10:38;99989.78;;;6.27;100.00
84308;BME280;74486;52.070;5.128;2024-03-02T02:13:04;100000.06;;;6.25;100.00
84308;BME280;74486;52.070;5.128;2024-03-02T02:15:30;99985.03;;;6.18;100.00
84308;BME280;74486;52.070;5.128;2024-03-02T02:17:58;99970.41;;;6.20;100.00
84308;BME280;74486;52.070;5.128;2024-03-02T02:20:24;99967.81;;;6.20;100.00
84308;BME280;74486;52.070;5.128;2024-03-02T02:23:02;99970.94;;;6.13;100.00
84308;BME280;74486;52.070;5.128;2024-03-02T02:25:28;99965.66;;;6.11;100.00
84308;BME280;74486;52.070;5.128;2024-03-02T02:27:54;99958.69;;;6.10;100.00
84308;BME280;74486;52.070;5.128;2024-03-02T02:30:22;99969.06;;;6.10;100.00
84308;BME280;74486;52.070;5.128;2024-03-02T02:32:48;99985.50;;;6.11;100.00
84308;BME280;74486;52.070;5.128;2024-03-02T02:35:14;99978.63;;;6.11;100.00
84308;BME280;74486;52.070;5.128;2024-03-02T02:37:40;99977.69;;;6.09;100.00
84308;BME280;74486;52.070;5.128;2024-03-02T02:40:08;99979.44;;;6.10;100.00
84308;BME280;74486;52.070;5.128;2024-03-02T02:42:34;99980.28;;;6.09;100.00
84308;BME280;74486;52.070;5.128;2024-03-02T02:44:59;99976.03;;;6.11;100.00
84308;BME280;74486;52.070;5.128;2024-03-02T02:47:25;99978.72;;;6.13;100.00
84308;BME280;74486;52.070;5.128;2024-03-02T02:49:51;99983.09;;;6.14;100.00
84308;BME280;74486;52.070;5.128;2024-03-02T02:52:16;99981.97;;;6.09;100.00
84308;BME280;74486;52.070;5.128;2024-03-02T02:54:42;99973.22;;;6.07;100.00
84308;BME280;74486;52.070;5.128;2024-03-02T02:57:08;99972.16;;;6.03;100.00
84308;BME280;74486;52.070;5.128;2024-03-02T02:59:35;99985.13;;;6.03;100.00
84308;BME280;74486;52.070;5.128;2024-03-02T03:02:01;99978.97;;;6.01;100.00
84308;BME280;74486;52.070;5.128;2024-03-02T03:04:26;99981.66;;;6.03;100.00
84308;BME280;74486;52.070;5.128;2024-03-02T03:06:52;99968.69;;;6.03;100.00
84308;BME280;74486;52.070;5.128;2024-03-02T03:09:17;99980.75;;;6.02;100.00
84308;BME280;74486;52.070;5.128;2024-03-02T03:11:42;99971.84;;;5.97;100.00
84308;BME280;74486;52.070;5.128;2024-03-02T03:14:09;99976.00;;;5.94;100.00
84308;BME280;74486;52.070;5.128;2024-03-02T03:16:35;99980.69;;;5.85;100.00
84308;BME280;74486;52.070;5.128;2024-03-02T03:19:00;99994.47;;;5.84;100.00
84308;BME280;74486;52.070;5.128;2024-03-02T03:21:26;99981.34;;;5.81;100.00
84308;BME280;74486;52.070;5.128;2024-03-02T03:23:51;99980.88;;;5.88;100.00
84308;BME280;74486;52.070;5.128;2024-03-02T03:26:17;99984.44;;;5.90;100.00
84308;BME280;74486;52.070;5.128;2024-03-02T03:28:42;99976.00;;;5.94;100.00
84308;BME280;74486;52.070;5.128;2024-03-02T03:31:09;99984.44;;;5.90;100.00
84308;BME280;74486;52.070;5.128;2024-03-02T03:33:34;99989.06;;;5.95;100.00
84308;BME280;74486;52.070;5.128;2024-03-02T03:36:00;99990.25;;;6.02;100.00
84308;BME280;74486;52.070;5.128;2024-03-02T03:38:26;99989.44;;;6.03;100.00
84308;BME280;74486;52.070;5.128;2024-03-02T03:40:51;99992.25;;;6.07;100.00
84308;BME280;74486;52.070;5.128;2024-03-02T03:43:16;99993.00;;;6.05;100.00
84308;BME280;74486;52.070;5.128;2024-03-02T03:45:42;99998.44;;;6.09;100.00
84308;BME280;74486;52.070;5.128;2024-03-02T03:48:09;100008.19;;;6.15;100.00
84308;BME280;74486;52.070;5.128;2024-03-02T03:50:34;100008.28;;;6.17;100.00
84308;BME280;74486;52.070;5.128;2024-03-02T03:53:00;99995.41;;;6.18;100.00
84308;BME280;74486;52.070;5.128;2024-03-02T03:55:25;100007.56;;;6.19;100.00
84308;BME280;74486;52.070;5.128;2024-03-02T03:57:51;100003.41;;;6.23;100.00
84308;BME280;74486;52.070;5.128;2024-03-02T04:00:17;100004.38;;;6.25;100.00
84308;BME280;74486;52.070;5.128;2024-03-02T04:02:42;100006.97;;;6.25;100.00
84308;BME280;74486;52.070;5.128;2024-03-02T04:05:10;100020.81;;;6.25;100.00
84308;BME280;74486;52.070;5.128;2024-03-02T04:07:36;100010.69;;;6.30;100.00
84308;BME280;74486;52.070;5.128;2024-03-02T04:10:01;100018.22;;;6.25;100.00
84308;BME280;74486;52.070;5.128;2024-03-02T04:12:27;100019.06;;;6.24;100.00
84308;BME280;74486;52.070;5.128;2024-03-02T04:14:52;100020.03;;;6.26;100.00
84308;BME280;74486;52.070;5.128;2024-03-02T04:17:17;100011.53;;;6.29;100.00
84308;BME280;74486;52.070;5.128;2024-03-02T04:19:43;100015.50;;;6.22;100.00
84308;BME280;74486;52.070;5.128;2024-03-02T04:22:10;100018.91;;;6.21;100.00
84308;BME280;74486;52.070;5.128;2024-03-02T04:24:35;100015.41;;;6.21;100.00
84308;BME280;74486;52.070;5.128;2024-03-02T04:27:01;100019.88;;;6.23;100.00
84308;BME280;74486;52.070;5.128;2024-03-02T04:29:26;100005.03;;;6.21;100.00
84308;BME280;74486;52.070;5.128;2024-03-02T04:31:51;100011.03;;;6.20;100.00
84308;BME280;74486;52.070;5.128;2024-03-02T04:34:17;100008.72;;;6.08;100.00
84308;BME280;74486;52.070;5.128;2024-03-02T04:36:44;100007.59;;;6.03;100.00
84308;BME280;74486;52.070;5.128;2024-03-02T04:39:11;100013.19;;;5.94;100.00
84308;BME280;74486;52.070;5.128;2024-03-02T04:41:36;100020.28;;;5.82;100.00
84308;BME280;74486;52.070;5.128;2024-03-02T04:44:02;100019.34;;;5.80;100.00
84308;BME280;74486;52.070;5.128;2024-03-02T04:46:28;100021.84;;;5.79;100.00
84308;BME280;74486;52.070;5.128;2024-03-02T04:48:53;100016.91;;;5.67;100.00
84308;BME280;74486;52.070;5.128;2024-03-02T04:51:19;100019.25;;;5.62;100.00
84308;BME280;74486;52.070;5.128;2024-03-02T04:53:44;100026.97;;;5.61;100.00
84308;BME280;74486;52.070;5.128;2024-03-02T04:56:11;100041.03;;;5.50;100.00
84308;BME280;74486;52.070;5.128;2024-03-02T04:58:37;100049.97;;;5.55;100.00
84308;BME280;74486;52.070;5.128;2024-03-02T05:01:02;100045.56;;;5.54;100.00
84308;BME280;74486;52.070;5.128;2024-03-02T05:03:28;100048.06;;;5.52;100.00
84308;BME280;74486;52.070;5.128;2024-03-02T05:05:54;100055.19;;;5.40;100.00
84308;BME280;74486;52.070;5.128;2024-03-02T05:08:19;100053.25;;;5.36;100.00
84308;BME280;74486;52.070;5.128;2024-03-02T05:10:45;100055.66;;;5.33;100.00
84308;BME280;74486;52.070;5.128;2024-03-02T05:13:13;100055.91;;;5.38;100.00
84308;BME280;74486;52.070;5.128;2024-03-02T05:15:38;100052.28;;;5.34;100.00
84308;BME280;74486;52.070;5.128;2024-03-02T05:18:04;100050.16;;;5.27;100.00
84308;BME280;74486;52.070;5.128;2024-03-02T05:20:30;100051.69;;;5.23;100.00
84308;BME280;74486;52.070;5.128;2024-03-02T05:22:55;100056.66;;;5.35;100.00
84308;BME280;74486;52.070;5.128;2024-03-02T05:25:21;100060.13;;;5.36;100.00
84308;BME280;74486;52.070;5.128;2024-03-02T05:27:46;100059.84;;;5.46;100.00
84308;BME280;74486;52.070;5.128;2024-03-02T05:30:13;100058.50;;;5.38;100.00
84308;BME280;74486;52.070;5.128;2024-03-02T05:32:39;100072.91;;;5.33;100.00
84308;BME280;74486;52.070;5.128;2024-03-02T05:35:05;100065.13;;;5.33;100.00
84308;BME280;74486;52.070;5.128;2024-03-02T05:37:31;100071.16;;;5.32;100.00
84308;BME280;74486;52.070;5.128;2024-03-02T05:39:56;100069.69;;;5.37;100.00
84308;BME280;74486;52.070;5.128;2024-03-02T05:42:22;100075.13;;;5.41;100.00
84308;BME280;74486;52.070;5.128;2024-03-02T05:44:47;100082.81;;;5.40;100.00
84308;BME280;74486;52.070;5.128;2024-03-02T05:47:14;100086.00;;;5.50;100.00
84308;BME280;74486;52.070;5.128;2024-03-02T05:49:39;100082.84;;;5.56;100.00
84308;BME280;74486;52.070;5.128;2024-03-02T05:52:05;100078.88;;;5.62;100.00
84308;BME280;74486;52.070;5.128;2024-03-02T05:54:31;100082.84;;;5.72;100.00
84308;BME280;74486;52.070;5.128;2024-03-02T05:56:56;100091.47;;;5.71;100.00
84308;BME280;74486;52.070;5.128;2024-03-02T05:59:22;100087.56;;;5.79;100.00
84308;BME280;74486;52.070;5.128;2024-03-02T06:01:48;100083.94;;;5.76;100.00
84308;BME280;74486;52.070;5.128;2024-03-02T06:04:14;100086.03;;;5.83;100.00
84308;BME280;74486;52.070;5.128;2024-03-02T06:06:40;100091.00;;;5.94;100.00
84308;BME280;74486;52.070;5.128;2024-03-02T06:09:06;100095.13;;;5.91;100.00
84308;BME280;74486;52.070;5.128;2024-03-02T06:11:32;100098.69;;;5.93;100.00
84308;BME280;74486;52.070;5.128;2024-03-02T06:13:57;100088.97;;;5.89;100.00
84308;BME280;74486;52.070;5.128;2024-03-02T06:16:23;100093.28;;;5.88;100.00
84308;BME280;74486;52.070;5.128;2024-03-02T06:18:48;100091.22;;;5.83;100.00
84308;BME280;74486;52.070;5.128;2024-03-02T06:21:15;100098.38;;;5.87;100.00
84308;BME280;74486;52.070;5.128;2024-03-02T06:23:40;100105.97;;;5.84;100.00
84308;BME280;74486;52.070;5.128;2024-03-02T06:26:06;100101.56;;;5.83;100.00
84308;BME280;74486;52.070;5.128;2024-03-02T06:28:31;100104.91;;;5.80;100.00
84308;BME280;74486;52.070;5.128;2024-03-02T06:30:57;100113.75;;;5.84;100.00
84308;BME280;74486;52.070;5.128;2024-03-02T06:33:22;100112.09;;;5.86;100.00
84308;BME280;74486;52.070;5.128;2024-03-02T06:35:48;100105.34;;;5.88;100.00
84308;BME280;74486;52.070;5.128;2024-03-02T06:38:15;100108.09;;;5.91;99.38
84308;BME280;74486;52.070;5.128;2024-03-02T06:40:40;100117.28;;;5.86;99.22
84308;BME280;74486;52.070;5.128;2024-03-02T06:43:06;100124.81;;;5.81;99.39
84308;BME280;74486;52.070;5.128;2024-03-02T06:45:31;100121.03;;;5.75;99.56
84308;BME280;74486;52.070;5.128;2024-03-02T06:47:57;100121.94;;;5.75;99.57
84308;BME280;74486;52.070;5.128;2024-03-02T06:50:22;100123.53;;;5.73;99.26
84308;BME280;74486;52.070;5.128;2024-03-02T06:52:47;100120.38;;;5.79;97.88
84308;BME280;74486;52.070;5.128;2024-03-02T06:55:14;100115.03;;;5.76;98.20
84308;BME280;74486;52.070;5.128;2024-03-02T06:57:40;100118.50;;;5.76;98.79
84308;BME280;74486;52.070;5.128;2024-03-02T07:00:06;100120.78;;;5.86;96.72
84308;BME280;74486;52.070;5.128;2024-03-02T07:02:32;100117.22;;;5.84;96.89
84308;BME280;74486;52.070;5.128;2024-03-02T07:04:57;100113.94;;;5.87;96.85
84308;BME280;74486;52.070;5.128;2024-03-02T07:07:23;100115.50;;;5.99;96.21
84308;BME280;74486;52.070;5.128;2024-03-02T07:09:48;100114.03;;;6.04;95.28
84308;BME280;74486;52.070;5.128;2024-03-02T07:12:15;100131.31;;;6.04;95.15
84308;BME280;74486;52.070;5.128;2024-03-02T07:14:41;100123.00;;;6.11;93.95
84308;BME280;74486;52.070;5.128;2024-03-02T07:17:06;100121.06;;;6.07;94.80
84308;BME280;74486;52.070;5.128;2024-03-02T07:19:31;100129.00;;;6.10;94.15
84308;BME280;74486;52.070;5.128;2024-03-02T07:21:57;100127.63;;;6.17;94.09
84308;BME280;74486;52.070;5.128;2024-03-02T07:24:22;100132.88;;;6.34;93.09
84308;BME280;74486;52.070;5.128;2024-03-02T07:26:48;100137.13;;;6.48;91.74
84308;BME280;74486;52.070;5.128;2024-03-02T07:29:15;100132.78;;;6.65;90.34
84308;BME280;74486;52.070;5.128;2024-03-02T07:31:40;100129.44;;;6.68;90.66
84308;BME280;74486;52.070;5.128;2024-03-02T07:34:06;100145.59;;;6.62;90.66
84308;BME280;74486;52.070;5.128;2024-03-02T07:36:31;100154.88;;;6.57;91.10
84308;BME280;74486;52.070;5.128;2024-03-02T07:38:57;100153.72;;;6.52;91.03
84308;BME280;74486;52.070;5.128;2024-03-02T07:41:22;100151.56;;;6.43;91.46
84308;BME280;74486;52.070;5.128;2024-03-02T07:43:48;100157.47;;;6.41;90.75
84308;BME280;74486;52.070;5.128;2024-03-02T07:46:14;100158.84;;;6.34;91.55
84308;BME280;74486;52.070;5.128;2024-03-02T07:48:40;100158.13;;;6.37;91.02
84308;BME280;74486;52.070;5.128;2024-03-02T07:51:07;100163.16;;;6.34;91.34
84308;BME280;74486;52.070;5.128;2024-03-02T07:53:32;100163.41;;;6.38;91.74
84308;BME280;74486;52.070;5.128;2024-03-02T07:55:58;100167.84;;;6.41;91.69
84308;BME280;74486;52.070;5.128;2024-03-02T07:58:23;100170.34;;;6.39;92.25
84308;BME280;74486;52.070;5.128;2024-03-02T08:00:49;100164.59;;;6.45;91.01
84308;BME280;74486;52.070;5.128;2024-03-02T08:03:15;100158.50;;;6.61;91.50
84308;BME280;74486;52.070;5.128;2024-03-02T08:05:41;100164.47;;;6.76;90.17
84308;BME280;74486;52.070;5.128;2024-03-02T08:08:06;100161.50;;;7.20;88.75
84308;BME280;74486;52.070;5.128;2024-03-02T08:10:32;100165.53;;;7.49;86.20
84308;BME280;74486;52.070;5.128;2024-03-02T08:12:57;100165.94;;;7.75;83.98
84308;BME280;74486;52.070;5.128;2024-03-02T08:15:23;100173.84;;;7.96;82.64
84308;BME280;74486;52.070;5.128;2024-03-02T08:17:48;100166.78;;;8.31;82.24
84308;BME280;74486;52.070;5.128;2024-03-02T08:20:15;100170.94;;;8.27;81.60
84308;BME280;74486;52.070;5.128;2024-03-02T08:22:41;100164.69;;;8.41;81.22
84308;BME280;74486;52.070;5.128;2024-03-02T08:25:07;100163.16;;;8.65;79.50
84308;BME280;74486;52.070;5.128;2024-03-02T08:27:33;100166.66;;;8.47;80.46
84308;BME280;74486;52.070;5.128;2024-03-02T08:29:58;100161.38;;;8.45;80.08
84308;BME280;74486;52.070;5.128;2024-03-02T08:32:24;100163.84;;;8.61;80.22
84308;BME280;74486;52.070;5.128;2024-03-02T08:34:49;100152.53;;;8.82;78.64
84308;BME280;74486;52.070;5.128;2024-03-02T08:37:16;100151.22;;;8.70;78.53
84308;BME280;74486;52.070;5.128;2024-03-02T08:39:42;100149.38;;;8.89;77.78
84308;BME280;74486;52.070;5.128;2024-03-02T08:42:07;100144.16;;;9.30;77.26
84308;BME280;74486;52.070;5.128;2024-03-02T08:44:33;100148.31;;;9.04;76.30
84308;BME280;74486;52.070;5.128;2024-03-02T08:46:59;100152.63;;;9.25;76.76
84308;BME280;74486;52.070;5.128;2024-03-02T08:49:24;100140.09;;;9.59;75.87
84308;BME280;74486;52.070;5.128;2024-03-02T08:51:50;100141.88;;;9.60;75.21
84308;BME280;74486;52.070;5.128;2024-03-02T08:54:17;100136.50;;;9.55;75.07
84308;BME280;74486;52.070;5.128;2024-03-02T08:56:42;100146.22;;;9.59;74.91
84308;BME280;74486;52.070;5.128;2024-03-02T08:59:08;100146.47;;;9.66;73.88
84308;BME280;74486;52.070;5.128;2024-03-02T09:01:33;100153.13;;;10.02;73.31
84308;BME280;74486;52.070;5.128;2024-03-02T09:03:59;100154.66;;;9.97;70.84
84308;BME280;74486;52.070;5.128;2024-03-02T09:06:24;100151.19;;;9.98;72.22
84308;BME280;74486;52.070;5.128;2024-03-02T09:08:50;100147.00;;;10.01;70.78
84308;BME280;74486;52.070;5.128;2024-03-02T09:11:17;100154.59;;;10.18;71.16
84308;BME280;74486;52.070;5.128;2024-03-02T09:13:42;100154.41;;;10.35;70.74
84308;BME280;74486;52.070;5.128;2024-03-02T09:16:08;100156.44;;;10.20;70.29
84308;BME280;74486;52.070;5.128;2024-03-02T09:18:33;100149.34;;;10.40;69.61
84308;BME280;74486;52.070;5.128;2024-03-02T09:20:59;100161.78;;;10.47;68.03
84308;BME280;74486;52.070;5.128;2024-03-02T09:23:24;100166.44;;;10.56;68.64
84308;BME280;74486;52.070;5.128;2024-03-02T09:25:50;100165.91;;;10.64;67.59
84308;BME280;74486;52.070;5.128;2024-03-02T09:28:16;100166.22;;;11.24;65.98
84308;BME280;74486;52.070;5.128;2024-03-02T09:30:42;100171.63;;;11.03;65.87
84308;BME280;74486;52.070;5.128;2024-03-02T09:33:07;100161.19;;;11.03;65.44
84308;BME280;74486;52.070;5.128;2024-03-02T09:35:33;100182.31;;;10.85;66.24
84308;BME280;74486;52.070;5.128;2024-03-02T09:37:58;100169.13;;;11.06;65.60
84308;BME280;74486;52.070;5.128;2024-03-02T09:40:24;100164.25;;;11.17;64.36
84308;BME280;74486;52.070;5.128;2024-03-02T09:42:49;100164.50;;;11.24;63.97
84308;BME280;74486;52.070;5.128;2024-03-02T09:45:17;100158.00;;;11.65;62.10
84308;BME280;74486;52.070;5.128;2024-03-02T09:47:44;100167.28;;;11.83;62.59
84308;BME280;74486;52.070;5.128;2024-03-02T09:50:09;100165.09;;;11.96;60.96
84308;BME280;74486;52.070;5.128;2024-03-02T09:52:36;100150.53;;;11.77;60.94
84308;BME280;74486;52.070;5.128;2024-03-02T09:55:03;100156.91;;;12.44;58.52
84308;BME280;74486;52.070;5.128;2024-03-02T09:57:28;100153.16;;;12.06;60.23
84308;BME280;74486;52.070;5.128;2024-03-02T09:59:54;100158.31;;;12.33;60.16
84308;BME280;74486;52.070;5.128;2024-03-02T10:02:20;100158.31;;;12.64;57.92
84308;BME280;74486;52.070;5.128;2024-03-02T10:04:49;100163.09;;;12.77;56.81
84308;BME280;74486;52.070;5.128;2024-03-02T10:07:15;100171.28;;;12.58;56.50
84308;BME280;74486;52.070;5.128;2024-03-02T10:09:42;100166.78;;;12.54;58.28
84308;BME280;74486;52.070;5.128;2024-03-02T10:12:10;100161.69;;;12.58;56.74
84308;BME280;74486;52.070;5.128;2024-03-02T10:14:36;100159.69;;;12.81;57.12
84308;BME280;74486;52.070;5.128;2024-03-02T10:17:02;100153.19;;;13.00;56.22
84308;BME280;74486;52.070;5.128;2024-03-02T10:19:29;100153.91;;;12.94;54.95
84308;BME280;74486;52.070;5.128;2024-03-02T10:21:55;100158.38;;;13.30;54.47
84308;BME280;74486;52.070;5.128;2024-03-02T10:24:23;100156.03;;;13.40;52.53
84308;BME280;74486;52.070;5.128;2024-03-02T10:26:48;100161.13;;;13.01;54.96
84308;BME280;74486;52.070;5.128;2024-03-02T10:29:14;100148.16;;;13.42;52.70
84308;BME280;74486;52.070;5.128;2024-03-02T10:31:41;100140.41;;;13.46;52.55
84308;BME280;74486;52.070;5.128;2024-03-02T10:34:07;100144.03;;;13.89;52.40
84308;BME280;74486;52.070;5.128;2024-03-02T10:36:34;100143.50;;;14.05;50.75
84308;BME280;74486;52.070;5.128;2024-03-02T10:39:01;100140.41;;;13.84;51.27
84308;BME280;74486;52.070;5.128;2024-03-02T10:41:28;100137.03;;;13.51;53.12
84308;BME280;74486;52.070;5.128;2024-03-02T10:43:54;100122.84;;;13.81;51.35
84308;BME280;74486;52.070;5.128;2024-03-02T10:46:22;100127.38;;;13.88;50.73
84308;BME280;74486;52.070;5.128;2024-03-02T10:48:49;100128.56;;;14.03;48.59
84308;BME280;74486;52.070;5.128;2024-03-02T10:51:14;100121.31;;;14.33;48.71
84308;BME280;74486;52.070;5.128;2024-03-02T10:53:41;100117.22;;;14.46;48.94
84308;BME280;74486;52.070;5.128;2024-03-02T10:56:07;100121.16;;;14.67;49.94
84308;BME280;74486;52.070;5.128;2024-03-02T10:58:35;100122.78;;;14.61;47.09
84308;BME280;74486;52.070;5.128;2024-03-02T11:01:03;100117.44;;;14.56;47.93
84308;BME280;74486;52.070;5.128;2024-03-02T11:03:29;100119.31;;;14.63;46.23
84308;BME280;74486;52.070;5.128;2024-03-02T11:05:59;100111.19;;;14.98;45.90
84308;BME280;74486;52.070;5.128;2024-03-02T11:08:27;100122.63;;;15.01;46.04
84308;BME280;74486;52.070;5.128;2024-03-02T11:10:58;100114.03;;;15.10;47.21
84308;BME280;74486;52.070;5.128;2024-03-02T11:13:29;100114.78;;;15.03;45.14
84308;BME280;74486;52.070;5.128;2024-03-02T11:15:59;100117.09;;;15.36;46.45
84308;BME280;74486;52.070;5.128;2024-03-02T11:18:29;100121.94;;;15.10;44.60
84308;BME280;74486;52.070;5.128;2024-03-02T11:20:55;100121.50;;;14.87;44.95
84308;BME280;74486;52.070;5.128;2024-03-02T11:23:31;100112.91;;;14.96;44.17
84308;BME280;74486;52.070;5.128;2024-03-02T11:26:16;100116.69;;;15.62;43.81
84308;BME280;74486;52.070;5.128;2024-03-02T11:28:42;100121.59;;;15.44;43.42
84308;BME280;74486;52.070;5.128;2024-03-02T11:31:08;100114.31;;;15.81;42.65
84308;BME280;74486;52.070;5.128;2024-03-02T11:33:34;100110.69;;;15.73;43.68
84308;BME280;74486;52.070;5.128;2024-03-02T11:36:00;100103.72;;;15.79;43.06
84308;BME280;74486;52.070;5.128;2024-03-02T11:38:33;100114.47;;;15.91;44.64
84308;BME280;74486;52.070;5.128;2024-03-02T11:41:00;100109.03;;;16.48;41.14
84308;BME280;74486;52.070;5.128;2024-03-02T11:43:27;100094.94;;;15.77;43.30
84308;BME280;74486;52.070;5.128;2024-03-02T11:45:56;100101.28;;;16.62;42.02
84308;BME280;74486;52.070;5.128;2024-03-02T11:48:21;100093.84;;;17.11;39.71
84308;BME280;74486;52.070;5.128;2024-03-02T11:50:49;100093.94;;;16.38;41.23
84308;BME280;74486;52.070;5.128;2024-03-02T11:53:15;100107.94;;;16.33;42.17
84308;BME280;74486;52.070;5.128;2024-03-02T11:55:41;100097.69;;;15.88;43.63
84308;BME280;74486;52.070;5.128;2024-03-02T11:58:07;100102.31;;;15.44;44.67
84308;BME280;74486;52.070;5.128;2024-03-02T12:00:34;100093.72;;;15.54;45.03
84308;BME280;74486;52.070;5.128;2024-03-02T12:03:00;100092.97;;;15.64;45.72
84308;BME280;74486;52.070;5.128;2024-03-02T12:05:26;100092.94;;;15.61;45.04
84308;BME280;74486;52.070;5.128;2024-03-02T12:07:56;100082.44;;;15.64;43.64
84308;BME280;74486;52.070;5.128;2024-03-02T12:10:21;100082.97;;;16.03;42.94
84308;BME280;74486;52.070;5.128;2024-03-02T12:12:47;100080.81;;;16.43;40.62
84308;BME280;74486;52.070;5.128;2024-03-02T12:15:12;100080.56;;;16.20;39.98
84308;BME280;74486;52.070;5.128;2024-03-02T12:17:39;100065.78;;;16.34;40.43
84308;BME280;74486;52.070;5.128;2024-03-02T12:20:05;100061.56;;;15.79;41.18
84308;BME280;74486;52.070;5.128;2024-03-02T12:22:31;100054.06;;;16.09;43.29
84308;BME280;74486;52.070;5.128;2024-03-02T12:24:56;100046.78;;;16.64;38.94
84308;BME280;74486;52.070;5.128;2024-03-02T12:27:22;100053.22;;;16.97;37.95
84308;BME280;74486;52.070;5.128;2024-03-02T12:29:48;100046.28;;;16.22;39.47
84308;BME280;74486;52.070;5.128;2024-03-02T12:32:14;100047.38;;;16.42;39.93
84308;BME280;74486;52.070;5.128;2024-03-02T12:34:41;100048.28;;;16.42;39.57
84308;BME280;74486;52.070;5.128;2024-03-02T12:37:06;100037.50;;;17.10;38.25
84308;BME280;74486;52.070;5.128;2024-03-02T12:39:32;100037.50;;;17.12;37.96
84308;BME280;74486;52.070;5.128;2024-03-02T12:41:57;100038.03;;;16.70;38.31
84308;BME280;74486;52.070;5.128;2024-03-02T12:44:23;100034.66;;;16.84;38.79
84308;BME280;74486;52.070;5.128;2024-03-02T12:46:48;100023.75;;;17.57;38.11
84308;BME280;74486;52.070;5.128;2024-03-02T12:49:15;100028.41;;;18.11;37.00